Time;durP1;ratioP1;P1;durP2;ratioP2;P2;SDS_P1;SDS_P2;PMS_P1;PMS_P2;Temp;Humidity;BMP_temperature;BMP_pressure;BME280_temperature;BME280_humidity;BME280_pressure;Samples;Min_cycle;Max_cycle;Signal;HPM_P1;HPM_P2
2023/12/18 00:00:45;;;;;;;0.00;0.00;;;;;;;3.73;100.00;101081.31;5117115;28;20194;-52
2023/12/18 00:03:31;;;;;;;0.00;0.00;;;;;;;3.68;100.00;101077.84;5116986;28;20612;-52
2023/12/18 00:06:19;;;;;;;0.00;0.00;;;;;;;3.80;100.00;101079.53;5117096;28;20296;-52
2023/12/18 00:09:06;;;;;;;0.00;0.00;;;;;;;3.55;100.00;101070.91;5117126;28;20197;-52
2023/12/18 00:11:54;;;;;;;0.00;0.00;;;;;;;3.77;100.00;101074.31;5115431;28;20194;-52
2023/12/18 00:14:41;;;;;;;0.00;0.00;;;;;;;3.71;100.00;101065.59;5116664;28;20297;-52
2023/12/18 00:17:27;;;;;;;0.00;0.00;;;;;;;3.79;100.00;101073.41;5116766;28;20202;-52
2023/12/18 00:20:15;;;;;;;0.10;0.10;;;;;;;3.55;100.00;101069.16;5116632;28;20190;-52
2023/12/18 00:23:01;;;;;;;0.00;0.00;;;;;;;3.60;100.00;101079.63;5116647;28;20229;-52
2023/12/18 00:25:48;;;;;;;0.00;0.00;;;;;;;3.84;100.00;101074.25;5115373;28;20186;-52
2023/12/18 00:28:36;;;;;;;0.00;0.00;;;;;;;3.70;100.00;101071.72;5116520;28;20313;-52
2023/12/18 00:31:23;;;;;;;0.00;0.00;;;;;;;3.60;100.00;101066.53;5116613;28;20217;-52
2023/12/18 00:34:10;;;;;;;0.00;0.00;;;;;;;3.70;100.00;101060.38;5116535;28;20460;-52
2023/12/18 00:36:57;;;;;;;0.00;0.00;;;;;;;4.01;100.00;101040.06;5116217;28;20300;-52
2023/12/18 00:39:44;;;;;;;0.00;0.00;;;;;;;3.68;100.00;101056.88;5115043;28;20205;-52
2023/12/18 00:42:31;;;;;;;0.00;0.00;;;;;;;3.56;100.00;101068.28;5116356;28;20213;-52
2023/12/18 00:45:19;;;;;;;0.00;0.00;;;;;;;3.67;100.00;101069.13;5116134;28;20190;-52
2023/12/18 00:48:07;;;;;;;0.00;0.00;;;;;;;3.59;100.00;101070.03;5116248;28;20209;-51
2023/12/18 00:50:54;;;;;;;0.00;0.00;;;;;;;3.42;100.00;101073.59;5116223;28;20194;-51
2023/12/18 00:53:40;;;;;;;0.00;0.00;;;;;;;3.48;100.00;101067.47;5116059;28;20190;-52
2023/12/18 00:56:27;;;;;;;0.00;0.00;;;;;;;3.64;100.00;101063.88;5114466;28;20210;-52
2023/12/18 00:59:14;;;;;;;0.00;0.00;;;;;;;3.63;100.00;101066.50;5115324;28;20190;-52
2023/12/18 01:02:02;;;;;;;0.00;0.00;;;;;;;3.58;100.00;101060.44;5115839;28;20190;-52
2023/12/18 01:04:49;;;;;;;0.00;0.00;;;;;;;3.51;100.00;101071.81;5115877;28;20231;-52
2023/12/18 01:07:36;;;;;;;0.00;0.00;;;;;;;3.48;100.00;101061.34;5115900;28;20247;-52
2023/12/18 01:10:23;;;;;;;0.00;0.00;;;;;;;3.34;100.00;101058.78;5114514;28;20228;-52
2023/12/18 01:13:10;;;;;;;0.00;0.00;;;;;;;3.14;100.00;101061.47;5115809;28;20641;-52
2023/12/18 01:15:58;;;;;;;0.10;0.10;;;;;;;3.10;100.00;101063.22;5115461;28;20288;-52
2023/12/18 01:18:47;;;;;;;0.00;0.00;;;;;;;3.07;100.00;101065.84;5115356;28;20226;-52
2023/12/18 01:21:34;;;;;;;0.00;0.00;;;;;;;2.98;100.00;101073.72;5115609;28;20259;-52
2023/12/18 01:24:21;;;;;;;0.00;0.00;;;;;;;2.93;100.00;101079.84;5115634;28;20252;-51
2023/12/18 01:27:08;;;;;;;0.00;0.00;;;;;;;3.20;100.00;101085.03;5115480;28;20219;-52
2023/12/18 01:29:55;;;;;;;0.00;0.00;;;;;;;3.14;100.00;101074.56;5115437;28;20320;-52
2023/12/18 01:32:43;;;;;;;0.00;0.00;;;;;;;3.37;100.00;101056.13;5115639;28;20198;-51
2023/12/18 01:35:32;;;;;;;0.00;0.00;;;;;;;2.94;100.00;101063.28;5115193;28;20338;-52
2023/12/18 01:38:18;;;;;;;0.00;0.00;;;;;;;3.11;100.00;101083.31;5115243;28;20197;-52
2023/12/18 01:41:05;;;;;;;0.00;0.00;;;;;;;2.77;100.00;101072.00;5113740;28;20214;-51
2023/12/18 01:43:52;;;;;;;0.00;0.00;;;;;;;2.77;100.00;101092.06;5115130;28;20256;-52
2023/12/18 01:46:40;;;;;;;0.00;0.00;;;;;;;2.90;100.00;101090.34;5115086;28;20186;-52
2023/12/18 01:49:26;;;;;;;0.00;0.00;;;;;;;2.90;100.00;101087.72;5114969;28;20202;-52
2023/12/18 01:52:14;;;;;;;0.00;0.00;;;;;;;2.97;100.00;101094.66;5114960;28;20210;-51
2023/12/18 01:55:01;;;;;;;0.00;0.00;;;;;;;2.77;100.00;101089.47;5113652;28;20236;-52
2023/12/18 01:57:48;;;;;;;0.10;0.10;;;;;;;2.69;100.00;101075.50;5114975;28;20664;-52
2023/12/18 02:00:35;;;;;;;0.00;0.00;;;;;;;2.59;100.00;101072.03;5114841;28;20198;-52
2023/12/18 02:03:24;;;;;;;0.00;0.00;;;;;;;2.71;100.00;101082.50;5114726;28;20216;-52
2023/12/18 02:06:14;;;;;;;0.00;0.00;;;;;;;2.55;100.00;101081.63;5114741;28;20194;-52
2023/12/18 02:09:04;;;;;;;0.00;0.00;;;;;;;2.79;100.00;101078.09;5114369;28;20182;-51
2023/12/18 02:11:51;;;;;;;0.00;0.00;;;;;;;2.94;100.00;101065.88;5113001;28;20684;-51
2023/12/18 02:14:38;;;;;;;0.00;0.00;;;;;;;2.64;100.00;101070.28;5114655;28;20186;-52
2023/12/18 02:17:25;;;;;;;0.00;0.00;;;;;;;2.55;100.00;101065.06;5113977;28;20217;-51
2023/12/18 02:20:12;;;;;;;0.00;0.00;;;;;;;2.49;100.00;101058.09;5114442;28;20189;-52
2023/12/18 02:23:01;;;;;;;0.00;0.00;;;;;;;2.90;100.00;101078.13;5114472;28;20202;-52
2023/12/18 02:25:48;;;;;;;0.00;0.00;;;;;;;2.81;100.00;101081.63;5113008;28;20862;-52
2023/12/18 02:28:35;;;;;;;0.00;0.00;;;;;;;2.64;100.00;101078.16;5114344;28;20194;-52
2023/12/18 02:31:22;;;;;;;0.00;0.00;;;;;;;2.63;100.00;101063.31;5114086;28;20194;-52
2023/12/18 02:34:09;;;;;;;0.00;0.00;;;;;;;2.74;100.00;101058.94;5114163;28;20240;-52
2023/12/18 02:36:56;;;;;;;0.00;0.00;;;;;;;2.69;100.00;101063.28;5113901;28;20399;-52
2023/12/18 02:39:44;;;;;;;0.00;0.00;;;;;;;2.68;100.00;101048.47;5112778;28;20246;-52
2023/12/18 02:42:31;;;;;;;0.00;0.00;;;;;;;2.63;100.00;101054.59;5114130;28;20198;-52
2023/12/18 02:45:18;;;;;;;0.00;0.00;;;;;;;2.53;100.00;101078.16;5113975;28;20251;-52
2023/12/18 02:48:06;;;;;;;0.00;0.00;;;;;;;2.49;100.00;101067.69;5113877;28;20198;-52
2023/12/18 02:50:52;;;;;;;0.00;0.00;;;;;;;2.31;100.00;101058.06;5114039;28;20201;-52
2023/12/18 02:53:39;;;;;;;0.00;0.00;;;;;;;2.26;100.00;101049.38;5114017;28;20194;-52
2023/12/18 02:56:28;;;;;;;0.00;0.00;;;;;;;2.37;100.00;101062.44;5112274;28;20331;-52
2023/12/18 02:59:14;;;;;;;0.00;0.00;;;;;;;2.34;100.00;101058.09;5113927;28;20237;-52
2023/12/18 03:02:02;;;;;;;0.00;0.00;;;;;;;2.58;100.00;101075.53;5113738;28;20236;-52
2023/12/18 03:04:48;;;;;;;0.03;0.03;;;;;;;2.51;100.00;101073.78;5113597;28;20194;-52
2023/12/18 03:07:35;;;;;;;0.00;0.00;;;;;;;2.93;100.00;101069.38;5113722;28;20236;-52
2023/12/18 03:10:22;;;;;;;0.00;0.00;;;;;;;2.64;100.00;101059.81;5112320;28;20217;-52
2023/12/18 03:13:11;;;;;;;0.00;0.00;;;;;;;2.23;100.00;101052.00;5113602;28;20668;-52
2023/12/18 03:15:58;;;;;;;0.00;0.00;;;;;;;2.37;100.00;101054.59;5113542;28;20194;-52
2023/12/18 03:18:45;;;;;;;0.10;0.10;;;;;;;2.24;100.00;101048.50;5113166;28;20241;-52
2023/12/18 03:21:32;;;;;;;0.00;0.00;;;;;;;2.47;100.00;101059.84;5112991;28;20186;-52
2023/12/18 03:24:19;;;;;;;0.00;0.00;;;;;;;2.49;100.00;101050.22;5113430;28;20201;-52
2023/12/18 03:27:08;;;;;;;0.00;0.00;;;;;;;2.57;100.00;101047.63;5113358;28;20182;-52
2023/12/18 03:29:57;;;;;;;0.00;0.00;;;;;;;2.55;100.00;101046.75;5113279;28;20198;-52
2023/12/18 03:32:43;;;;;;;0.00;0.00;;;;;;;2.62;100.00;101047.63;5113425;28;20202;-52
2023/12/18 03:35:30;;;;;;;0.00;0.00;;;;;;;2.26;100.00;101041.53;5113397;28;20319;-52
2023/12/18 03:38:17;;;;;;;0.00;0.00;;;;;;;2.50;100.00;101045.88;5112859;28;20213;-52
2023/12/18 03:41:05;;;;;;;0.10;0.10;;;;;;;2.41;100.00;101041.53;5112142;28;20308;-52
2023/12/18 03:43:51;;;;;;;0.00;0.00;;;;;;;2.29;100.00;101042.41;5113433;28;20193;-51
2023/12/18 03:46:39;;;;;;;0.00;0.00;;;;;;;2.28;100.00;101047.63;5112978;28;20185;-52
2023/12/18 03:49:26;;;;;;;0.00;0.00;;;;;;;2.53;100.00;101051.13;5113218;28;20236;-52
2023/12/18 03:52:13;;;;;;;0.00;0.00;;;;;;;2.54;100.00;101051.13;5113179;28;20209;-52
2023/12/18 03:55:01;;;;;;;0.00;0.00;;;;;;;2.82;100.00;101043.22;5111716;28;20677;-52
2023/12/18 03:57:48;;;;;;;0.00;0.00;;;;;;;2.76;100.00;101041.50;5112891;28;20287;-52
2023/12/18 04:00:35;;;;;;;0.00;0.00;;;;;;;2.51;100.00;101042.38;5113114;28;20201;-51
2023/12/18 04:03:23;;;;;;;0.00;0.00;;;;;;;2.35;100.00;101036.31;5112790;28;20197;-51
2023/12/18 04:06:10;;;;;;;0.00;0.00;;;;;;;2.39;100.00;101029.31;5113039;28;20199;-52
2023/12/18 04:08:56;;;;;;;0.00;0.00;;;;;;;2.31;100.00;101029.31;5113134;28;20194;-52
2023/12/18 04:11:43;;;;;;;0.10;0.10;;;;;;;2.47;100.00;101038.91;5111489;28;20281;-52
2023/12/18 04:14:30;;;;;;;0.00;0.00;;;;;;;2.55;100.00;101038.91;5112976;28;20198;-52
2023/12/18 04:17:17;;;;;;;0.00;0.00;;;;;;;2.42;100.00;101029.34;5112695;28;20214;-51
2023/12/18 04:20:07;;;;;;;0.00;0.00;;;;;;;2.54;100.00;101035.44;5112826;28;20194;-52
2023/12/18 04:22:54;;;;;;;0.00;0.00;;;;;;;2.20;100.00;101015.38;5112974;28;20191;-52
2023/12/18 04:25:41;;;;;;;0.00;0.00;;;;;;;2.06;100.00;101014.53;5111516;28;20283;-51
2023/12/18 04:28:28;;;;;;;0.00;0.00;;;;;;;1.74;100.00;101012.75;5112697;28;20280;-51
2023/12/18 04:31:18;;;;;;;0.10;0.10;;;;;;;2.01;100.00;101011.88;5112914;28;20280;-52
2023/12/18 04:34:05;;;;;;;0.10;0.10;;;;;;;2.28;100.00;101004.06;5114870;28;20189;-51
2023/12/18 04:36:53;;;;;;;0.00;0.00;;;;;;;2.09;100.00;101011.91;5116142;28;20213;-52
2023/12/18 04:39:40;;;;;;;0.00;0.00;;;;;;;2.00;100.00;101012.75;5115032;28;20194;-52
2023/12/18 04:42:27;;;;;;;0.10;0.10;;;;;;;2.10;100.00;101024.97;5116410;28;20232;-52
2023/12/18 04:45:14;;;;;;;0.00;0.00;;;;;;;1.92;100.00;101010.13;5116257;28;20680;-51
2023/12/18 04:48:01;;;;;;;0.10;0.10;;;;;;;1.91;100.00;101011.00;5116106;28;20182;-52
2023/12/18 04:50:48;;;;;;;0.00;0.00;;;;;;;1.93;100.00;101004.06;5116160;28;20193;-51
2023/12/18 04:53:36;;;;;;;0.00;0.00;;;;;;;2.18;100.00;101010.16;5116173;28;20231;-52
2023/12/18 04:56:23;;;;;;;0.00;0.00;;;;;;;1.97;100.00;101004.94;5114774;28;20229;-52
2023/12/18 04:59:11;;;;;;;0.10;0.10;;;;;;;2.15;100.00;100999.72;5116133;28;20182;-52
2023/12/18 05:01:58;;;;;;;0.00;0.00;;;;;;;2.17;100.00;101008.41;5115872;28;20194;-52
2023/12/18 05:04:45;;;;;;;0.00;0.00;;;;;;;2.16;100.00;101011.91;5116048;28;20248;-51
2023/12/18 05:07:32;;;;;;;0.00;0.00;;;;;;;2.08;100.00;101018.00;5116014;28;20189;-52
2023/12/18 05:10:20;;;;;;;0.00;0.00;;;;;;;2.07;100.00;101008.41;5114596;28;20316;-52
2023/12/18 05:13:07;;;;;;;0.00;0.00;;;;;;;2.05;100.00;101015.41;5115767;28;20187;-52
2023/12/18 05:15:54;;;;;;;0.10;0.10;;;;;;;2.14;100.00;101008.44;5115762;28;20202;-52
2023/12/18 05:18:41;;;;;;;0.00;0.00;;;;;;;1.99;100.00;101019.72;5115176;28;20221;-51
2023/12/18 05:21:28;;;;;;;0.00;0.00;;;;;;;2.00;100.00;101005.78;5115606;28;20285;-52
2023/12/18 05:24:15;;;;;;;0.00;0.00;;;;;;;2.12;100.00;101001.44;5115489;28;20234;-52
2023/12/18 05:27:04;;;;;;;0.00;0.00;;;;;;;2.07;100.00;100997.97;5115421;28;20187;-52
2023/12/18 05:29:51;;;;;;;0.00;0.00;;;;;;;2.13;100.00;101006.69;5115469;28;20194;-52
2023/12/18 05:32:37;;;;;;;0.00;0.00;;;;;;;2.24;100.00;101002.31;5115517;28;20545;-51
2023/12/18 05:35:24;;;;;;;0.00;0.00;;;;;;;2.19;100.00;101004.06;5114518;28;20267;-51
2023/12/18 05:38:11;;;;;;;0.00;0.00;;;;;;;2.28;100.00;101013.66;5115068;28;20205;-52
2023/12/18 05:40:58;;;;;;;0.00;0.00;;;;;;;2.41;100.00;101011.88;5114002;28;20252;-52
2023/12/18 05:43:47;;;;;;;0.00;0.00;;;;;;;2.24;100.00;101007.56;5114951;28;20202;-52
2023/12/18 05:46:33;;;;;;;0.00;0.00;;;;;;;2.35;100.00;101015.41;5115115;28;20187;-52
2023/12/18 05:49:20;;;;;;;0.00;0.00;;;;;;;2.21;100.00;101017.13;5115032;28;20194;-52
2023/12/18 05:52:07;;;;;;;0.00;0.00;;;;;;;2.09;100.00;101004.06;5115008;28;20193;-52
2023/12/18 05:54:54;;;;;;;0.00;0.00;;;;;;;2.14;100.00;101004.94;5113664;28;20546;-52
2023/12/18 05:57:41;;;;;;;0.07;0.07;;;;;;;2.06;100.00;101015.41;5114876;28;20324;-51
2023/12/18 06:00:29;;;;;;;0.07;0.07;;;;;;;1.86;100.00;101004.06;5114881;28;20190;-51
2023/12/18 06:03:16;;;;;;;0.07;0.07;;;;;;;1.85;100.00;100994.47;5114795;28;20214;-52
2023/12/18 06:06:03;;;;;;;0.00;0.00;;;;;;;1.83;100.00;100997.06;5114843;28;20672;-51
2023/12/18 06:08:50;;;;;;;0.10;0.10;;;;;;;1.98;100.00;101002.31;5114744;28;20243;-52
2023/12/18 06:11:37;;;;;;;0.00;0.00;;;;;;;2.15;100.00;101007.56;5113370;28;20198;-52
2023/12/18 06:14:23;;;;;;;0.00;0.00;;;;;;;1.97;100.00;100997.09;5114499;28;20194;-51
2023/12/18 06:17:12;;;;;;;0.00;0.00;;;;;;;2.05;100.00;100997.09;5114551;28;20190;-52
2023/12/18 06:19:59;;;;;;;0.10;0.10;;;;;;;1.96;100.00;101001.44;5114465;28;20241;-52
2023/12/18 06:22:46;;;;;;;0.00;0.00;;;;;;;1.82;100.00;100992.72;5114444;28;20271;-52
2023/12/18 06:25:32;;;;;;;0.00;0.00;;;;;;;1.80;100.00;101006.66;5113054;28;20206;-52
2023/12/18 06:28:19;;;;;;;0.10;0.10;;;;;;;1.98;100.00;101009.28;5114279;28;20688;-51
2023/12/18 06:31:06;;;;;;;0.00;0.00;;;;;;;2.01;100.00;101004.91;5114255;28;20276;-51
2023/12/18 06:33:54;;;;;;;0.00;0.00;;;;;;;2.29;100.00;101016.25;5114247;28;20197;-52
2023/12/18 06:36:42;;;;;;;0.00;0.00;;;;;;;2.05;100.00;101024.09;5114155;28;20232;-51
2023/12/18 06:39:29;;;;;;;0.00;0.00;;;;;;;2.05;100.00;101033.69;5112915;28;20336;-52
2023/12/18 06:42:16;;;;;;;0.00;0.00;;;;;;;2.01;100.00;101028.44;5114160;28;20281;-51
2023/12/18 06:45:04;;;;;;;0.00;0.00;;;;;;;2.07;100.00;101022.34;5114074;28;20202;-51
2023/12/18 06:47:51;;;;;;;0.00;0.00;;;;;;;1.84;100.00;101024.97;5112968;28;20308;-51
2023/12/18 06:50:39;;;;;;;0.00;0.00;;;;;;;1.88;100.00;101026.69;5113946;28;20190;-51
2023/12/18 06:53:26;;;;;;;0.00;0.00;;;;;;;1.76;100.00;101025.81;5113810;28;20241;-51
2023/12/18 06:56:13;;;;;;;0.00;0.00;;;;;;;1.90;100.00;101014.50;5112004;28;20190;-51
2023/12/18 06:59:00;;;;;;;0.00;0.00;;;;;;;1.80;100.00;101024.94;5113609;28;20707;-51
2023/12/18 07:01:47;;;;;;;0.00;0.00;;;;;;;2.04;100.00;101032.81;5113829;28;20190;-52
2023/12/18 07:04:34;;;;;;;0.00;0.00;;;;;;;1.94;100.00;101024.09;5113613;28;20267;-51
2023/12/18 07:07:22;;;;;;;0.00;0.00;;;;;;;1.90;100.00;101031.91;5113616;28;20198;-51
2023/12/18 07:10:09;;;;;;;0.00;0.00;;;;;;;1.83;100.00;101030.16;5112321;28;20187;-51
2023/12/18 07:12:56;;;;;;;0.00;0.00;;;;;;;1.98;100.00;101033.66;5113660;28;20190;-51
2023/12/18 07:15:43;;;;;;;0.00;0.00;;;;;;;1.81;100.00;101035.38;5113552;28;20213;-52
2023/12/18 07:18:30;;;;;;;0.00;0.00;;;;;;;1.72;100.00;101030.13;5113223;28;20727;-51
2023/12/18 07:21:17;;;;;;;0.00;0.00;;;;;;;1.71;100.00;101041.47;5113533;28;20232;-51
2023/12/18 07:24:06;;;;;;;0.00;0.00;;;;;;;1.72;100.00;101051.03;5113462;28;20206;-52
2023/12/18 07:26:52;;;;;;;0.00;0.00;;;;;;;1.90;100.00;101042.38;5112857;28;20317;-52
2023/12/18 07:29:39;;;;;;;0.10;0.10;;;;;;;1.99;100.00;101042.38;5113397;28;20644;-52
2023/12/18 07:32:26;;;;;;;0.00;0.00;;;;;;;2.09;100.00;101038.91;5113300;28;20190;-52
2023/12/18 07:35:13;;;;;;;0.00;0.00;;;;;;;2.12;100.00;101030.19;5113368;28;20201;-52
2023/12/18 07:38:00;;;;;;;0.10;0.10;;;;;;;2.12;100.00;101048.47;5113368;28;20287;-51
2023/12/18 07:40:48;;;;;;;0.00;0.00;;;;;;;1.87;100.00;101035.41;5111892;28;20305;-52
2023/12/18 07:43:35;;;;;;;0.00;0.00;;;;;;;2.03;100.00;101045.84;5113222;28;20190;-52
2023/12/18 07:46:23;;;;;;;0.00;0.00;;;;;;;1.89;100.00;101036.28;5113269;28;20197;-52
2023/12/18 07:49:10;;;;;;;0.07;0.07;;;;;;;1.85;100.00;101051.97;5113476;28;20194;-52
2023/12/18 07:51:57;;;;;;;0.00;0.00;;;;;;;1.61;100.00;101045.78;5113224;28;20680;-51
2023/12/18 07:54:43;;;;;;;0.00;0.00;;;;;;;1.75;100.00;101040.63;5111824;28;20197;-51
2023/12/18 07:57:32;;;;;;;0.00;0.00;;;;;;;1.80;100.00;101033.63;5113302;28;20212;-52
2023/12/18 08:00:19;;;;;;;0.00;0.00;;;;;;;1.59;100.00;101021.41;5112921;28;20283;-51
2023/12/18 08:03:06;;;;;;;0.00;0.00;;;;;;;1.36;100.00;101012.66;5113106;28;20189;-51
2023/12/18 08:05:53;;;;;;;0.00;0.00;;;;;;;1.61;100.00;101026.63;5112941;28;20194;-51
2023/12/18 08:08:40;;;;;;;0.00;0.00;;;;;;;1.72;100.00;101032.75;5114648;28;20201;-51
2023/12/18 08:11:27;;;;;;;0.00;0.00;;;;;;;1.62;100.00;101024.03;5115783;28;20368;-51
2023/12/18 08:14:15;;;;;;;0.00;0.00;;;;;;;1.73;100.00;101035.34;5116743;28;20191;-52
2023/12/18 08:17:03;;;;;;;0.00;0.00;;;;;;;1.67;100.00;101034.50;5116943;28;20191;-51
2023/12/18 08:19:50;;;;;;;0.00;0.00;;;;;;;1.61;100.00;101024.91;5116484;28;20251;-52
2023/12/18 08:22:37;;;;;;;0.00;0.00;;;;;;;1.95;100.00;101022.34;5116826;28;20212;-52
2023/12/18 08:25:25;;;;;;;0.00;0.00;;;;;;;1.75;100.00;101027.56;5115482;28;20259;-52
2023/12/18 08:28:12;;;;;;;0.00;0.00;;;;;;;1.66;100.00;101032.75;5116584;28;20495;-51
2023/12/18 08:31:00;;;;;;;0.00;0.00;;;;;;;1.55;100.00;101030.13;5116529;28;20253;-51
2023/12/18 08:33:47;;;;;;;0.00;0.00;;;;;;;1.46;100.00;101027.47;5116213;28;20275;-51
2023/12/18 08:36:34;;;;;;;0.00;0.00;;;;;;;1.64;100.00;101021.41;5116107;28;20206;-52
2023/12/18 08:39:21;;;;;;;0.00;0.00;;;;;;;1.69;100.00;101015.34;5116120;28;20218;-51
2023/12/18 08:42:10;;;;;;;0.00;0.00;;;;;;;1.49;100.00;101013.56;5116592;28;20186;-51
2023/12/18 08:44:56;;;;;;;0.00;0.00;;;;;;;1.51;100.00;101010.06;5116138;28;20308;-52
2023/12/18 08:47:45;;;;;;;0.00;0.00;;;;;;;1.78;100.00;101016.22;5116340;28;20236;-52
2023/12/18 08:50:32;;;;;;;0.00;0.00;;;;;;;1.53;100.00;101017.91;5116294;28;20194;-51
2023/12/18 08:53:19;;;;;;;0.10;0.10;;;;;;;1.52;100.00;101022.25;5115886;28;20215;-51
2023/12/18 08:56:06;;;;;;;0.00;0.00;;;;;;;1.55;100.00;101024.03;5114830;28;20190;-52
2023/12/18 08:58:55;;;;;;;0.00;0.00;;;;;;;1.53;100.00;101017.91;5115560;28;20201;-52
2023/12/18 09:01:42;;;;;;;0.00;0.00;;;;;;;1.83;100.00;101030.16;5115513;28;20202;-51
2023/12/18 09:04:30;;;;;;;0.00;0.00;;;;;;;1.61;100.00;101035.34;5116043;28;20387;-52
2023/12/18 09:07:17;;;;;;;0.00;0.00;;;;;;;1.77;100.00;101036.25;5115967;28;20256;-51
2023/12/18 09:10:05;;;;;;;0.10;0.10;;;;;;;1.69;100.00;101040.59;5114347;28;20185;-52
2023/12/18 09:12:53;;;;;;;0.00;0.00;;;;;;;1.57;100.00;101033.59;5115730;28;20354;-51
2023/12/18 09:15:40;;;;;;;0.00;0.00;;;;;;;1.60;100.00;101037.94;5115728;28;20502;-52
2023/12/18 09:18:27;;;;;;;0.00;0.00;;;;;;;1.72;100.00;101044.06;5115031;28;20229;-51
2023/12/18 09:21:16;;;;;;;0.00;0.00;;;;;;;1.92;100.00;101053.69;5115640;28;20700;-52
2023/12/18 09:24:02;;;;;;;0.10;0.10;;;;;;;1.89;100.00;101053.69;5115552;28;20202;-52
2023/12/18 09:26:49;;;;;;;0.00;0.00;;;;;;;2.09;100.00;101057.19;5114784;28;20205;-52
2023/12/18 09:29:36;;;;;;;0.00;0.00;;;;;;;1.94;100.00;101055.47;5115498;28;20648;-52
2023/12/18 09:32:23;;;;;;;0.00;0.00;;;;;;;2.01;100.00;101058.94;5115635;28;20195;-52
2023/12/18 09:35:11;;;;;;;0.00;0.00;;;;;;;1.61;100.00;101051.00;5115186;28;20202;-51
2023/12/18 09:37:59;;;;;;;0.00;0.00;;;;;;;1.68;100.00;101042.31;5115322;28;20224;-52
2023/12/18 09:40:46;;;;;;;0.10;0.10;;;;;;;1.75;100.00;101039.75;5113685;28;20274;-52
2023/12/18 09:43:33;;;;;;;0.00;0.00;;;;;;;1.67;100.00;101037.97;5115047;28;20716;-52
2023/12/18 09:46:23;;;;;;;0.00;0.00;;;;;;;1.83;100.00;101030.16;5115267;28;20281;-52
2023/12/18 09:49:10;;;;;;;0.00;0.00;;;;;;;1.97;100.00;101044.13;5115067;28;20205;-51
2023/12/18 09:52:01;;;;;;;0.10;0.10;;;;;;;1.72;100.00;101030.13;5114847;28;20198;-51
2023/12/18 09:54:50;;;;;;;0.00;0.00;;;;;;;1.82;100.00;101026.66;5113826;28;20210;-52
2023/12/18 09:57:39;;;;;;;0.00;0.00;;;;;;;1.60;100.00;101024.91;5114928;28;20202;-52
2023/12/18 10:00:26;;;;;;;0.00;0.00;;;;;;;1.76;100.00;101021.47;5113684;28;20210;-51
2023/12/18 10:03:16;;;;;;;0.00;0.00;;;;;;;1.60;100.00;101025.75;5114832;28;20256;-52
2023/12/18 10:06:04;;;;;;;0.00;0.00;;;;;;;1.62;100.00;101024.03;5114801;28;20676;-51
2023/12/18 10:08:51;;;;;;;0.00;0.00;;;;;;;1.86;100.00;101031.06;5114772;28;20309;-51
2023/12/18 10:11:39;;;;;;;0.00;0.00;;;;;;;1.89;100.00;101027.56;5113465;28;20285;-52
2023/12/18 10:14:26;;;;;;;0.00;0.00;;;;;;;1.98;100.00;101024.97;5114591;28;20198;-52
2023/12/18 10:17:13;;;;;;;0.00;0.00;;;;;;;1.99;100.00;101030.19;5114518;28;20213;-52
2023/12/18 10:20:02;;;;;;;0.00;0.00;;;;;;;1.99;100.00;101013.63;5114382;28;20708;-51
2023/12/18 10:22:49;;;;;;;0.00;0.00;;;;;;;1.92;100.00;101004.03;5114467;28;20577;-52
2023/12/18 10:25:37;;;;;;;0.00;0.00;;;;;;;2.18;100.00;101012.78;5112712;28;20192;-52
2023/12/18 10:28:26;;;;;;;0.00;0.00;;;;;;;1.91;100.00;101011.00;5114345;28;20268;-51
2023/12/18 10:31:13;;;;;;;0.00;0.00;;;;;;;1.98;100.00;101004.06;5113397;28;20252;-52
2023/12/18 10:34:02;;;;;;;0.00;0.00;;;;;;;1.83;100.00;100994.44;5114277;28;20186;-52
2023/12/18 10:36:48;;;;;;;0.00;0.00;;;;;;;2.01;100.00;100998.81;5113201;28;20268;-52
2023/12/18 10:39:41;;;;;;;0.00;0.00;;;;;;;1.80;100.00;100989.22;5112699;28;20198;-51
2023/12/18 10:42:33;;;;;;;0.00;0.00;;;;;;;1.86;100.00;100985.78;5114014;28;20202;-52
2023/12/18 10:45:22;;;;;;;0.00;0.00;;;;;;;1.97;100.00;100992.75;5114063;28;20190;-52
2023/12/18 10:48:10;;;;;;;0.00;0.00;;;;;;;1.89;100.00;100996.22;5113703;28;20193;-52
2023/12/18 10:50:58;;;;;;;0.10;0.10;;;;;;;1.95;100.00;100985.78;5113876;28;20220;-52
2023/12/18 10:53:46;;;;;;;0.00;0.00;;;;;;;1.75;100.00;100980.53;5114014;28;20202;-51
2023/12/18 10:56:34;;;;;;;0.00;0.00;;;;;;;1.87;100.00;100979.66;5112464;28;20718;-51
2023/12/18 10:59:22;;;;;;;0.00;0.00;;;;;;;1.84;100.00;100975.31;5113888;28;20259;-51
2023/12/18 11:02:11;;;;;;;0.00;0.00;;;;;;;1.95;100.00;100972.72;5113764;28;20210;-51
2023/12/18 11:05:00;;;;;;;0.00;0.00;;;;;;;1.95;100.00;100978.81;5112558;28;20308;-51
2023/12/18 11:07:47;;;;;;;0.00;0.00;;;;;;;2.06;100.00;100978.81;5113742;28;20259;-52
2023/12/18 11:10:34;;;;;;;0.00;0.00;;;;;;;1.87;100.00;100969.22;5112296;28;20194;-52
2023/12/18 11:13:26;;;;;;;0.00;0.00;;;;;;;2.17;100.00;100957.88;5113502;28;20466;-51
2023/12/18 11:16:23;;;;;;;0.00;0.00;;;;;;;1.96;100.00;100956.16;5113643;28;20280;-51
2023/12/18 11:19:20;;;;;;;0.00;0.00;;;;;;;2.14;100.00;100950.06;5113140;28;20229;-51
2023/12/18 11:22:16;;;;;;;0.00;0.00;;;;;;;2.14;100.00;100950.06;5113582;28;20227;-51
2023/12/18 11:25:04;;;;;;;0.00;0.00;;;;;;;2.01;100.00;100957.00;5112172;28;20256;-52
2023/12/18 11:27:52;;;;;;;0.00;0.00;;;;;;;2.09;100.00;100949.19;5113246;28;20258;-52
2023/12/18 11:30:42;;;;;;;0.00;0.00;;;;;;;1.94;100.00;100950.94;5113370;28;20656;-51
2023/12/18 11:33:30;;;;;;;0.10;0.10;;;;;;;2.15;100.00;100938.72;5113329;28;20308;-52
2023/12/18 11:36:32;;;;;;;0.00;0.00;;;;;;;1.80;100.00;100933.50;5113582;28;20194;-51
2023/12/18 11:39:21;;;;;;;0.00;0.00;;;;;;;2.01;100.00;100938.72;5113013;28;20186;-52
2023/12/18 11:42:10;;;;;;;0.00;0.00;;;;;;;2.10;100.00;100936.09;5113829;28;20245;-52
2023/12/18 11:45:03;;;;;;;0.00;0.00;;;;;;;2.25;100.00;100945.69;5117587;28;20206;-52
2023/12/18 11:47:52;;;;;;;0.00;0.00;;;;;;;2.12;100.00;100929.13;5117503;28;20189;-51
2023/12/18 11:50:39;;;;;;;0.00;0.00;;;;;;;2.10;100.00;100933.50;5117165;28;20182;-51
2023/12/18 11:53:35;;;;;;;0.10;0.10;;;;;;;2.36;100.00;100922.13;5117330;28;20198;-52
2023/12/18 11:56:22;;;;;;;0.00;0.00;;;;;;;2.13;100.00;100923.06;5115809;28;20214;-52
2023/12/18 11:59:10;;;;;;;0.00;0.00;;;;;;;2.34;100.00;100908.19;5117007;28;20236;-52
2023/12/18 12:01:57;;;;;;;0.00;0.00;;;;;;;2.25;100.00;100903.84;5116471;28;20217;-51
2023/12/18 12:04:45;;;;;;;0.00;0.00;;;;;;;2.31;100.00;100909.06;5117046;28;20676;-52
2023/12/18 12:07:32;;;;;;;0.03;0.03;;;;;;;2.13;100.00;100902.13;5116858;28;20308;-52
2023/12/18 12:10:20;;;;;;;0.00;0.00;;;;;;;2.74;100.00;100893.25;5114358;28;20198;-51
2023/12/18 12:13:07;;;;;;;0.10;0.10;;;;;;;2.29;100.00;100882.03;5115859;28;20194;-51
2023/12/18 12:15:56;;;;;;;0.10;0.10;;;;;;;2.39;100.00;100882.91;5116888;28;20194;-52
2023/12/18 12:18:47;;;;;;;0.07;0.07;;;;;;;2.39;100.00;100880.28;5116334;28;20584;-52
2023/12/18 12:21:35;;;;;;;0.00;0.00;;;;;;;2.26;100.00;100867.25;5116568;28;20341;-51
2023/12/18 12:24:33;;;;;;;0.10;0.10;;;;;;;2.36;100.00;100865.47;5115279;28;20195;-52
2023/12/18 12:27:22;;;;;;;0.00;0.00;;;;;;;2.31;100.00;100864.59;5116715;28;20193;-52
2023/12/18 12:30:10;;;;;;;0.00;0.00;;;;;;;2.34;100.00;100864.63;5116829;28;20309;-52
2023/12/18 12:32:57;;;;;;;0.00;0.00;;;;;;;2.31;100.00;100859.38;5116645;28;20194;-52
2023/12/18 12:35:45;;;;;;;0.00;0.00;;;;;;;2.38;100.00;100861.09;5116596;28;20309;-52
2023/12/18 12:38:31;;;;;;;0.00;0.00;;;;;;;2.34;100.00;100854.16;5116128;28;20284;-52
2023/12/18 12:41:19;;;;;;;0.00;0.00;;;;;;;2.30;100.00;100849.78;5114815;28;20737;-51
2023/12/18 12:44:07;;;;;;;0.00;0.00;;;;;;;2.42;100.00;100848.91;5116153;28;20194;-52
2023/12/18 12:46:55;;;;;;;0.00;0.00;;;;;;;2.56;100.00;100847.09;5112969;28;20209;-52
2023/12/18 12:49:46;;;;;;;0.07;0.07;;;;;;;2.53;100.00;100840.13;5114374;28;20201;-52
2023/12/18 12:52:36;;;;;;;0.00;0.00;;;;;;;2.68;100.00;100844.41;5114275;28;20221;-52
2023/12/18 12:55:23;;;;;;;0.00;0.00;;;;;;;2.56;100.00;100831.41;5113630;28;20240;-51
2023/12/18 12:58:11;;;;;;;0.00;0.00;;;;;;;2.77;100.00;100827.81;5115925;28;20202;-52